Time;durP1;ratioP1;P1;durP2;ratioP2;P2;SDS_P1;SDS_P2;PMS_P1;PMS_P2;Temp;Humidity;BMP_temperature;BMP_pressure;BME280_temperature;BME280_humidity;BME280_pressure;Samples;Min_cycle;Max_cycle;Signal;HPM_P1;HPM_P2
2022/04/07 00:00:26;;;;;;;;;;;;;;;12.00;52.20;98153.38;5251534;27;32080;-87
2022/04/07 00:02:57;;;;;;;;;;;;;;;12.03;52.16;98153.22;5254209;27;34200;-86
2022/04/07 00:05:27;;;;;;;;;;;;;;;12.09;52.09;98147.78;5252885;27;32997;-87
2022/04/07 00:07:56;;;;;;;;;;;;;;;12.28;51.76;98142.59;5251716;27;33281;-86
2022/04/07 00:10:29;;;;;;;;;;;;;;;12.31;50.81;98137.25;5254530;27;33280;-87
2022/04/07 00:13:04;;;;;;;;;;;;;;;11.87;52.53;98141.81;5250829;27;33500;-85
2022/04/07 00:15:35;;;;;;;;;;;;;;;12.27;50.77;98134.84;5249249;27;33890;-86
2022/04/07 00:18:07;;;;;;;;;;;;;;;11.88;51.87;98130.50;5249344;27;34188;-86
2022/04/07 00:20:37;;;;;;;;;;;;;;;11.97;51.87;98119.72;5248093;27;33372;-86
2022/04/07 00:23:12;;;;;;;;;;;;;;;11.70;52.78;98126.94;5247660;27;32410;-87
2022/04/07 00:25:41;;;;;;;;;;;;;;;11.61;53.01;98122.97;5254526;27;35040;-86
2022/04/07 00:28:13;;;;;;;;;;;;;;;11.81;52.47;98118.66;5248553;27;33620;-86
2022/04/07 00:30:45;;;;;;;;;;;;;;;11.54;53.37;98113.75;5250078;27;33495;-86
2022/04/07 00:33:16;;;;;;;;;;;;;;;11.29;54.11;98111.34;5248182;27;34024;-87
2022/04/07 00:35:53;;;;;;;;;;;;;;;11.73;52.81;98104.25;5248569;27;34998;-85
2022/04/07 00:38:22;;;;;;;;;;;;;;;11.56;53.32;98109.31;5248423;27;34294;-88
2022/04/07 00:40:53;;;;;;;;;;;;;;;11.68;52.93;98100.16;5254451;27;32836;-87
2022/04/07 00:43:30;;;;;;;;;;;;;;;11.22;54.33;98102.94;5251347;27;34078;-87
2022/04/07 00:45:59;;;;;;;;;;;;;;;11.49;53.41;98094.91;5252699;27;34640;-86
2022/04/07 00:48:36;;;;;;;;;;;;;;;11.03;54.81;98097.66;5252999;27;33793;-85
2022/04/07 00:51:06;;;;;;;;;;;;;;;10.85;55.54;98091.47;5251446;27;32678;-87
2022/04/07 00:53:38;;;;;;;;;;;;;;;11.12;54.37;98093.03;5250722;27;34189;-86
2022/04/07 00:56:06;;;;;;;;;;;;;;;11.35;53.66;98090.28;5254426;27;34174;-87
2022/04/07 00:58:35;;;;;;;;;;;;;;;11.24;54.00;98084.72;5250391;27;34393;-87
2022/04/07 01:01:04;;;;;;;;;;;;;;;11.37;53.85;98085.06;5248166;27;34163;-86
2022/04/07 01:03:34;;;;;;;;;;;;;;;11.24;54.46;98079.53;5248990;27;34602;-87
2022/04/07 01:06:04;;;;;;;;;;;;;;;11.29;54.18;98075.81;5249818;27;34069;-87
2022/04/07 01:08:36;;;;;;;;;;;;;;;11.31;54.13;98070.59;5254436;27;34071;-86
2022/04/07 01:11:09;;;;;;;;;;;;;;;11.37;54.26;98072.06;5248721;27;33068;-87
2022/04/07 01:13:48;;;;;;;;;;;;;;;11.63;53.12;98071.78;5248813;27;33700;-87
2022/04/07 01:16:16;;;;;;;;;;;;;;;11.46;53.33;98074.28;5247921;27;34900;-87
2022/04/07 01:18:46;;;;;;;;;;;;;;;11.62;52.85;98077.03;5248299;27;34031;-86
2022/04/07 01:21:15;;;;;;;;;;;;;;;11.38;53.49;98072.00;5247806;27;34075;-86
2022/04/07 01:23:46;;;;;;;;;;;;;;;11.40;53.21;98064.97;5254896;27;34534;-88
2022/04/07 01:26:16;;;;;;;;;;;;;;;11.58;52.50;98063.38;5248662;27;33869;-86
2022/04/07 01:28:47;;;;;;;;;;;;;;;11.31;53.03;98062.78;5248738;27;34303;-86
2022/04/07 01:31:16;;;;;;;;;;;;;;;11.62;51.84;98056.25;5248323;27;33895;-88
2022/04/07 01:33:45;;;;;;;;;;;;;;;11.32;52.91;98049.72;5249127;27;34020;-86
2022/04/07 01:36:14;;;;;;;;;;;;;;;11.52;52.43;98054.09;5251505;27;35323;-86
2022/04/07 01:38:50;;;;;;;;;;;;;;;11.61;51.76;98044.19;5248742;27;34869;-87
2022/04/07 01:41:20;;;;;;;;;;;;;;;11.63;51.35;98035.44;5248173;27;33696;-87
2022/04/07 01:43:49;;;;;;;;;;;;;;;11.49;51.85;98045.56;5248500;27;33990;-88
2022/04/07 01:46:18;;;;;;;;;;;;;;;11.66;51.51;98042.25;5248603;27;34298;-86
2022/04/07 01:48:55;;;;;;;;;;;;;;;11.58;51.41;98036.56;5249156;27;34778;-88
2022/04/07 01:51:24;;;;;;;;;;;;;;;11.57;51.62;98050.44;5254456;27;33347;-85
2022/04/07 01:53:54;;;;;;;;;;;;;;;11.40;52.21;98045.97;5249170;27;34654;-86
2022/04/07 01:56:24;;;;;;;;;;;;;;;11.56;51.98;98051.34;5249568;27;33652;-85
2022/04/07 01:58:56;;;;;;;;;;;;;;;11.59;51.91;98041.66;5249686;27;34227;-86
2022/04/07 02:01:24;;;;;;;;;;;;;;;11.27;53.05;98030.06;5248842;27;32890;-86
2022/04/07 02:03:56;;;;;;;;;;;;;;;11.45;52.52;98023.25;5255089;27;34078;-87
2022/04/07 02:06:30;;;;;;;;;;;;;;;11.57;51.99;98014.91;5249089;27;33584;-86
2022/04/07 02:09:06;;;;;;;;;;;;;;;11.57;52.55;98016.66;5249677;27;34601;-86
2022/04/07 02:11:49;;;;;;;;;;;;;;;11.62;52.45;98007.78;5248632;27;33235;-86
2022/04/07 02:14:22;;;;;;;;;;;;;;;11.57;52.26;97999.31;5248758;27;34789;-87
2022/04/07 02:16:50;;;;;;;;;;;;;;;11.71;52.07;98002.16;5249000;27;34639;-86
2022/04/07 02:19:19;;;;;;;;;;;;;;;11.75;51.93;97995.09;5253041;27;33674;-87
2022/04/07 02:21:52;;;;;;;;;;;;;;;11.60;52.67;97994.03;5254385;27;32954;-87
2022/04/07 02:24:21;;;;;;;;;;;;;;;11.56;52.72;97982.06;5249437;27;34014;-87
2022/04/07 02:26:51;;;;;;;;;;;;;;;11.61;52.81;97974.06;5250063;27;34265;-86
2022/04/07 02:29:21;;;;;;;;;;;;;;;11.12;53.50;97964.09;5250354;27;34184;-86
2022/04/07 02:31:52;;;;;;;;;;;;;;;10.74;54.41;97961.38;5249844;27;34002;-87
2022/04/07 02:34:22;;;;;;;;;;;;;;;10.69;54.89;97965.91;5254918;27;34226;-87
2022/04/07 02:36:58;;;;;;;;;;;;;;;10.77;54.40;97962.97;5250576;27;34964;-86
2022/04/07 02:39:29;;;;;;;;;;;;;;;10.74;54.57;97957.94;5250476;27;34819;-86
2022/04/07 02:41:58;;;;;;;;;;;;;;;11.26;53.20;97946.16;5249620;27;34112;-88
2022/04/07 02:44:28;;;;;;;;;;;;;;;11.32;53.03;97945.88;5249150;27;34230;-85
2022/04/07 02:47:07;;;;;;;;;;;;;;;10.97;53.95;97944.84;5254913;27;34195;-87
2022/04/07 02:49:39;;;;;;;;;;;;;;;11.03;53.90;97936.78;5255263;27;33866;-88
2022/04/07 02:52:08;;;;;;;;;;;;;;;11.00;54.08;97931.72;5249143;27;33340;-88
2022/04/07 02:54:42;;;;;;;;;;;;;;;11.03;54.29;97925.56;5247697;27;34135;-86
2022/04/07 02:57:17;;;;;;;;;;;;;;;10.97;54.44;97920.63;5249057;27;33676;-87
2022/04/07 02:59:46;;;;;;;;;;;;;;;11.13;53.96;97923.41;5248833;27;33555;-87
2022/04/07 03:02:17;;;;;;;;;;;;;;;11.10;54.35;97914.84;5255155;27;33313;-88
2022/04/07 03:04:46;;;;;;;;;;;;;;;11.12;54.37;97911.34;5253424;27;33841;-88
2022/04/07 03:07:16;;;;;;;;;;;;;;;11.22;54.47;97912.63;5249196;27;34184;-88
2022/04/07 03:09:45;;;;;;;;;;;;;;;10.92;55.36;97900.09;5249588;27;34754;-88
2022/04/07 03:12:22;;;;;;;;;;;;;;;10.68;55.64;97902.81;5250486;27;33276;-87
2022/04/07 03:14:52;;;;;;;;;;;;;;;11.04;54.68;97898.69;5250409;27;33223;-87
2022/04/07 03:17:22;;;;;;;;;;;;;;;11.30;53.70;97906.16;5254811;27;34532;-88
2022/04/07 03:19:51;;;;;;;;;;;;;;;11.38;53.50;97913.63;5231651;27;32368;-88
2022/04/07 03:22:20;;;;;;;;;;;;;;;11.54;52.53;97909.41;5230067;27;33197;-89
2022/04/07 03:24:49;;;;;;;;;;;;;;;11.49;52.90;97902.75;5228983;27;34033;-87
2022/04/07 03:27:18;;;;;;;;;;;;;;;11.72;52.08;97906.91;5228778;27;35180;-88
2022/04/07 03:29:49;;;;;;;;;;;;;;;11.27;52.92;97908.06;5233361;27;33814;-86
2022/04/07 03:32:22;;;;;;;;;;;;;;;10.69;54.52;97906.25;5227788;27;33216;-88
2022/04/07 03:34:52;;;;;;;;;;;;;;;10.58;55.05;97906.72;5227798;27;34302;-88
2022/04/07 03:37:28;;;;;;;;;;;;;;;10.64;54.70;97897.81;5229067;27;34698;-87
2022/04/07 03:39:57;;;;;;;;;;;;;;;10.33;56.11;97887.88;5227380;27;34446;-87
2022/04/07 03:42:28;;;;;;;;;;;;;;;10.56;55.68;97882.59;5227269;27;33451;-88
2022/04/07 03:44:56;;;;;;;;;;;;;;;10.59;55.90;97879.88;5233114;27;34213;-87
2022/04/07 03:47:34;;;;;;;;;;;;;;;10.78;55.48;97868.72;5227596;27;33716;-87
2022/04/07 03:50:02;;;;;;;;;;;;;;;10.89;55.28;97876.84;5227944;27;34159;-87
2022/04/07 03:52:36;;;;;;;;;;;;;;;10.76;55.74;97879.16;5227613;27;33352;-88
2022/04/07 03:55:05;;;;;;;;;;;;;;;10.81;55.61;97868.56;5228966;27;34270;-88
2022/04/07 03:57:35;;;;;;;;;;;;;;;10.80;55.54;97866.87;5230219;27;36280;-87
2022/04/07 04:00:04;;;;;;;;;;;;;;;10.91;55.54;97856.88;5232987;27;34921;-87
2022/04/07 04:02:50;;;;;;;;;;;;;;;10.89;55.63;97862.13;5230635;27;33867;-87
2022/04/07 04:05:22;;;;;;;;;;;;;;;11.06;55.41;97861.38;5232721;27;34663;-87
2022/04/07 04:07:59;;;;;;;;;;;;;;;11.10;54.98;97851.72;5232894;27;34720;-87
2022/04/07 04:10:28;;;;;;;;;;;;;;;11.09;55.02;97850.88;5231818;27;33900;-88
2022/04/07 04:12:58;;;;;;;;;;;;;;;11.16;54.80;97854.03;5229708;27;32865;-88
2022/04/07 04:15:27;;;;;;;;;;;;;;;11.09;55.20;97852.66;5231296;27;33181;-87
2022/04/07 04:18:05;;;;;;;;;;;;;;;11.06;55.30;97856.19;5227674;27;32629;-88
2022/04/07 04:20:33;;;;;;;;;;;;;;;11.02;55.46;97857.25;5233210;27;34035;-86
2022/04/07 04:23:03;;;;;;;;;;;;;;;10.92;55.85;97855.12;5247487;27;32449;-87
2022/04/07 04:25:31;;;;;;;;;;;;;;;11.01;55.49;97863.34;5249158;27;33665;-88
2022/04/07 04:28:01;;;;;;;;;;;;;;;10.93;55.65;97857.66;5255104;27;35084;-87
2022/04/07 04:30:30;;;;;;;;;;;;;;;10.97;55.43;97848.84;5248317;27;33507;-87
2022/04/07 04:33:00;;;;;;;;;;;;;;;11.09;55.28;97853.47;5248775;27;33283;-87
2022/04/07 04:35:31;;;;;;;;;;;;;;;10.90;56.10;97850.03;5248771;27;33641;-86
2022/04/07 04:38:00;;;;;;;;;;;;;;;10.89;55.96;97853.50;5249121;27;34336;-87
2022/04/07 04:40:32;;;;;;;;;;;;;;;11.00;55.50;97853.88;5249201;27;33714;-88
2022/04/07 04:43:03;;;;;;;;;;;;;;;10.83;56.41;97848.59;5254145;27;33750;-87
2022/04/07 04:45:35;;;;;;;;;;;;;;;10.60;56.36;97844.41;5249003;27;35449;-88
2022/04/07 04:48:09;;;;;;;;;;;;;;;10.46;56.65;97839.78;5249726;27;34133;-88
2022/04/07 04:50:38;;;;;;;;;;;;;;;10.41;56.76;97837.41;5254181;27;34450;-88
2022/04/07 04:53:08;;;;;;;;;;;;;;;10.49;56.81;97842.28;5254671;27;33900;-87
2022/04/07 04:55:37;;;;;;;;;;;;;;;11.04;55.12;97851.97;5236265;27;35447;-88
2022/04/07 04:58:15;;;;;;;;;;;;;;;11.22;54.81;97842.53;5251074;27;35089;-87
2022/04/07 05:00:43;;;;;;;;;;;;;;;11.44;54.34;97847.59;5248700;27;34114;-87
2022/04/07 05:03:15;;;;;;;;;;;;;;;11.49;54.32;97853.41;5249489;27;32783;-87
2022/04/07 05:05:43;;;;;;;;;;;;;;;11.54;54.47;97861.84;5249633;27;34841;-88
2022/04/07 05:08:21;;;;;;;;;;;;;;;11.63;54.47;97861.41;5218959;27;824635;-90
2022/04/07 05:10:49;;;;;;;;;;;;;;;11.61;54.20;97855.44;5253915;27;33190;-88
2022/04/07 05:13:23;;;;;;;;;;;;;;;11.43;54.88;97849.34;5250142;27;33757;-88
2022/04/07 05:15:52;;;;;;;;;;;;;;;11.47;55.03;97850.03;5250413;27;35046;-89
2022/04/07 05:18:22;;;;;;;;;;;;;;;11.57;55.00;97845.25;5249502;27;34118;-88
2022/04/07 05:20:51;;;;;;;;;;;;;;;11.52;55.47;97845.47;5249565;27;34159;-87
2022/04/07 05:23:24;;;;;;;;;;;;;;;11.52;54.89;97850.66;5254560;27;33558;-89
2022/04/07 05:25:53;;;;;;;;;;;;;;;11.64;54.30;97855.28;5253942;27;34229;-89
2022/04/07 05:28:30;;;;;;;;;;;;;;;11.77;53.96;97868.56;5249275;27;34041;-86
2022/04/07 05:30:59;;;;;;;;;;;;;;;12.09;52.71;97861.00;5247678;27;32761;-87
2022/04/07 05:33:29;;;;;;;;;;;;;;;12.07;53.12;97865.44;5250732;27;33192;-90
2022/04/07 05:35:58;;;;;;;;;;;;;;;12.37;51.60;97863.94;5251581;27;34710;-88
2022/04/07 05:38:29;;;;;;;;;;;;;;;12.29;52.84;97871.25;5256131;27;35070;-90
2022/04/07 05:40:57;;;;;;;;;;;;;;;12.26;53.67;97879.22;5250705;27;34695;-88
2022/04/07 05:43:32;;;;;;;;;;;;;;;12.16;54.14;97884.03;5250009;27;33235;-88
2022/04/07 05:46:05;;;;;;;;;;;;;;;12.28;53.85;97889.56;5250469;27;33482;-89
2022/04/07 05:48:35;;;;;;;;;;;;;;;12.29;54.18;97893.81;5251011;27;33965;-88
2022/04/07 05:51:07;;;;;;;;;;;;;;;12.52;54.27;97901.34;5251636;27;34036;-89
2022/04/07 05:53:37;;;;;;;;;;;;;;;12.74;53.88;97901.09;5255428;27;33429;-88
2022/04/07 05:56:05;;;;;;;;;;;;;;;12.88;53.33;97910.81;5250913;27;34600;-90
2022/04/07 05:58:35;;;;;;;;;;;;;;;12.85;53.56;97907.50;5250886;27;33276;-88
2022/04/07 06:01:04;;;;;;;;;;;;;;;12.97;53.02;97914.69;5248727;27;34195;-90
2022/04/07 06:03:40;;;;;;;;;;;;;;;13.20;52.54;97910.91;5248866;27;33486;-88
2022/04/07 06:06:09;;;;;;;;;;;;;;;13.17;52.58;97919.72;5254992;27;34549;-88
2022/04/07 06:08:39;;;;;;;;;;;;;;;13.40;51.52;97918.53;5250185;27;34003;-87
2022/04/07 06:11:15;;;;;;;;;;;;;;;13.21;51.89;97913.41;5249872;27;33844;-88
2022/04/07 06:13:44;;;;;;;;;;;;;;;13.09;52.18;97916.66;5249853;27;33085;-89
2022/04/07 06:16:16;;;;;;;;;;;;;;;13.27;51.58;97914.03;5251426;27;34423;-88
2022/04/07 06:18:46;;;;;;;;;;;;;;;13.34;51.08;97916.28;5251222;27;34736;-89
2022/04/07 06:21:18;;;;;;;;;;;;;;;13.11;51.51;97917.44;5256572;27;34380;-88
2022/04/07 06:23:47;;;;;;;;;;;;;;;13.27;51.37;97922.72;5250478;27;32880;-87
2022/04/07 06:26:17;;;;;;;;;;;;;;;13.82;50.02;97918.91;5252888;27;34923;-88
2022/04/07 06:28:45;;;;;;;;;;;;;;;14.02;49.73;97928.25;5250990;27;34062;-88
2022/04/07 06:31:23;;;;;;;;;;;;;;;14.07;50.50;97927.06;5249875;27;34481;-89
2022/04/07 06:33:58;;;;;;;;;;;;;;;14.05;50.25;97931.53;5257153;27;33764;-88
2022/04/07 06:36:44;;;;;;;;;;;;;;;14.18;50.92;97938.66;5257198;27;34933;-88
2022/04/07 06:39:12;;;;;;;;;;;;;;;14.49;50.64;97946.44;5251339;27;34256;-88
2022/04/07 06:41:47;;;;;;;;;;;;;;;14.41;50.13;97945.22;5251316;27;35329;-91
2022/04/07 06:44:19;;;;;;;;;;;;;;;14.52;48.96;97951.50;5252883;27;32673;-88
2022/04/07 06:46:48;;;;;;;;;;;;;;;14.72;47.14;97953.00;5250659;27;34895;-88
2022/04/07 06:49:20;;;;;;;;;;;;;;;14.64;47.38;97956.97;5255466;27;32826;-89
2022/04/07 06:51:53;;;;;;;;;;;;;;;14.71;48.79;97953.94;5256757;27;34276;-90
2022/04/07 06:54:22;;;;;;;;;;;;;;;14.69;48.84;97953.19;5250898;27;34074;-88
2022/04/07 06:56:53;;;;;;;;;;;;;;;14.81;47.78;97950.75;5251160;27;33861;-89
2022/04/07 06:59:21;;;;;;;;;;;;;;;14.93;45.63;97950.91;5250626;27;33935;-88
2022/04/07 07:01:51;;;;;;;;;;;;;;;14.82;45.91;97947.25;5251619;27;34038;-88
2022/04/07 07:04:21;;;;;;;;;;;;;;;14.80;46.00;97943.87;5255697;27;33874;-88
2022/04/07 07:06:53;;;;;;;;;;;;;;;14.73;46.63;97946.00;5250591;27;34390;-90
2022/04/07 07:09:21;;;;;;;;;;;;;;;14.92;47.08;97951.81;5250203;27;34370;-88
2022/04/07 07:11:54;;;;;;;;;;;;;;;15.04;47.64;97952.88;5250548;27;34192;-88
2022/04/07 07:14:23;;;;;;;;;;;;;;;15.16;46.56;97953.94;5250294;27;33198;-90
2022/04/07 07:16:57;;;;;;;;;;;;;;;15.03;46.76;97961.66;5256773;27;33928;-89
2022/04/07 07:19:28;;;;;;;;;;;;;;;15.40;45.50;97958.63;5256482;27;33716;-89
2022/04/07 07:21:57;;;;;;;;;;;;;;;15.23;46.02;97949.19;5252138;27;34714;-89
2022/04/07 07:24:26;;;;;;;;;;;;;;;15.17;46.59;97950.37;5252238;27;33390;-88
2022/04/07 07:26:59;;;;;;;;;;;;;;;15.12;47.05;97957.63;5252866;27;34484;-88
2022/04/07 07:29:29;;;;;;;;;;;;;;;15.28;46.42;97949.75;5251523;27;34220;-88
2022/04/07 07:32:00;;;;;;;;;;;;;;;15.02;47.39;97952.13;5255692;27;34726;-90
2022/04/07 07:34:30;;;;;;;;;;;;;;;15.02;47.80;97951.28;5251231;27;33735;-88
2022/04/07 07:37:01;;;;;;;;;;;;;;;15.06;47.39;97948.41;5250324;27;34593;-88
2022/04/07 07:39:30;;;;;;;;;;;;;;;15.00;47.29;97961.81;5250532;27;34158;-88
2022/04/07 07:42:04;;;;;;;;;;;;;;;15.12;45.44;97955.03;5249213;27;33345;-88
2022/04/07 07:44:32;;;;;;;;;;;;;;;14.90;46.03;97956.28;5250294;27;33975;-89
2022/04/07 07:47:04;;;;;;;;;;;;;;;15.11;45.54;97959.41;5254505;27;34390;-88
2022/04/07 07:49:35;;;;;;;;;;;;;;;14.96;45.30;97952.50;5248366;27;33814;-88
2022/04/07 07:52:05;;;;;;;;;;;;;;;14.85;45.83;97957.50;5249263;27;33745;-88
2022/04/07 07:54:34;;;;;;;;;;;;;;;15.02;45.39;97959.97;5249494;27;33423;-87
2022/04/07 07:57:05;;;;;;;;;;;;;;;14.96;46.13;97967.34;5249713;27;33834;-88
2022/04/07 07:59:37;;;;;;;;;;;;;;;15.14;46.62;97966.22;5256153;27;34704;-88
2022/04/07 08:02:08;;;;;;;;;;;;;;;15.35;45.89;97966.72;5250879;27;33775;-88
2022/04/07 08:04:44;;;;;;;;;;;;;;;15.48;44.75;97966.81;5252542;27;33991;-88
2022/04/07 08:07:13;;;;;;;;;;;;;;;15.69;43.12;97968.13;5253356;27;33774;-90
2022/04/07 08:09:42;;;;;;;;;;;;;;;15.66;43.38;97968.31;5254277;27;34286;-88
2022/04/07 08:12:13;;;;;;;;;;;;;;;15.93;42.77;97968.41;5256406;27;34352;-89
2022/04/07 08:14:41;;;;;;;;;;;;;;;15.77;44.08;97965.91;5256661;27;34042;-90
2022/04/07 08:17:10;;;;;;;;;;;;;;;15.93;44.26;97968.41;5254643;27;34503;-89
2022/04/07 08:19:40;;;;;;;;;;;;;;;15.97;43.61;97979.50;5253071;27;35147;-90
2022/04/07 08:22:15;;;;;;;;;;;;;;;15.93;44.31;97968.41;5251492;27;35073;-87
2022/04/07 08:24:43;;;;;;;;;;;;;;;15.62;44.55;97977.28;5250753;27;32999;-91
2022/04/07 08:27:12;;;;;;;;;;;;;;;15.81;44.40;97971.78;5256423;27;34628;-88
2022/04/07 08:29:41;;;;;;;;;;;;;;;15.98;44.36;97978.59;5249782;27;34678;-88
2022/04/07 08:32:17;;;;;;;;;;;;;;;15.99;44.88;97980.25;5250163;27;33501;-89
2022/04/07 08:34:45;;;;;;;;;;;;;;;15.98;45.10;97982.03;5248318;27;34480;-88
2022/04/07 08:37:20;;;;;;;;;;;;;;;15.79;43.96;97984.13;5250174;27;33865;-89
2022/04/07 08:39:49;;;;;;;;;;;;;;;15.43;45.68;97977.53;5250110;27;34856;-88
2022/04/07 08:42:20;;;;;;;;;;;;;;;15.33;46.53;97977.25;5256475;27;34411;-90
2022/04/07 08:44:48;;;;;;;;;;;;;;;15.46;46.72;97971.28;5251065;27;33556;-88
2022/04/07 08:47:23;;;;;;;;;;;;;;;15.46;47.11;97974.75;5250271;27;33716;-88
2022/04/07 08:49:51;;;;;;;;;;;;;;;15.43;47.30;97976.72;5250606;27;34197;-88
2022/04/07 08:52:21;;;;;;;;;;;;;;;15.36;47.64;97971.00;5251656;27;34176;-88
2022/04/07 08:54:50;;;;;;;;;;;;;;;15.07;48.72;97973.56;5253082;27;33730;-88
2022/04/07 08:57:19;;;;;;;;;;;;;;;15.52;46.74;97969.16;5254726;27;33652;-88
2022/04/07 08:59:50;;;;;;;;;;;;;;;15.44;47.33;97960.94;5256079;27;33442;-89
2022/04/07 09:02:25;;;;;;;;;;;;;;;15.53;47.38;97970.81;5256134;27;34700;-88
2022/04/07 09:04:58;;;;;;;;;;;;;;;15.49;48.12;97961.50;5251073;27;32810;-88
2022/04/07 09:07:38;;;;;;;;;;;;;;;15.74;46.94;97963.47;5250649;27;34212;-88
2022/04/07 09:10:07;;;;;;;;;;;;;;;15.69;45.94;97959.44;5250450;27;32755;-90
2022/04/07 09:12:39;;;;;;;;;;;;;;;15.69;46.46;97956.84;5249554;27;34086;-89
2022/04/07 09:15:12;;;;;;;;;;;;;;;15.62;45.99;97956.38;5250686;27;33353;-88
2022/04/07 09:17:50;;;;;;;;;;;;;;;15.93;43.68;97952.72;5250246;27;34515;-88
2022/04/07 09:20:19;;;;;;;;;;;;;;;15.87;42.56;97953.09;5248995;27;34374;-88
2022/04/07 09:22:57;;;;;;;;;;;;;;;15.81;42.09;97947.44;5247784;27;34423;-89
2022/04/07 09:25:26;;;;;;;;;;;;;;;15.46;42.61;97953.00;5253846;27;32672;-88
2022/04/07 09:28:00;;;;;;;;;;;;;;;15.93;41.87;97947.50;5248003;27;34243;-89
2022/04/07 09:30:37;;;;;;;;;;;;;;;15.81;42.89;97950.03;5248353;27;34919;-88
2022/04/07 09:33:06;;;;;;;;;;;;;;;15.92;45.09;97948.44;5247630;27;33690;-88
2022/04/07 09:35:35;;;;;;;;;;;;;;;15.70;46.69;97951.53;5248302;27;32951;-90
2022/04/07 09:38:05;;;;;;;;;;;;;;;15.77;46.42;97950.22;5251247;27;33964;-90
2022/04/07 09:40:41;;;;;;;;;;;;;;;15.54;47.36;97941.16;5255835;27;34424;-88
2022/04/07 09:43:10;;;;;;;;;;;;;;;15.65;46.93;97940.47;5253678;27;34317;-88
2022/04/07 09:45:44;;;;;;;;;;;;;;;15.43;47.11;97937.50;5251818;27;33809;-90
2022/04/07 09:48:32;;;;;;;;;;;;;;;15.41;47.09;97934.97;5250258;27;33822;-88
2022/04/07 09:51:02;;;;;;;;;;;;;;;15.29;47.24;97931.34;5255620;27;33687;-88
2022/04/07 09:53:37;;;;;;;;;;;;;;;15.40;47.46;97928.09;5250676;27;34731;-89
2022/04/07 09:56:08;;;;;;;;;;;;;;;15.70;47.39;97928.00;5256030;27;33981;-89
2022/04/07 09:58:38;;;;;;;;;;;;;;;16.01;46.38;97918.22;5250043;27;34907;-89
2022/04/07 10:01:10;;;;;;;;;;;;;;;16.50;45.23;97922.06;5250161;27;34143;-90
2022/04/07 10:03:38;;;;;;;;;;;;;;;16.83;44.46;97921.66;5249992;27;34163;-88
2022/04/07 10:06:07;;;;;;;;;;;;;;;17.16;44.57;97920.31;5249147;27;32983;-89
2022/04/07 10:08:41;;;;;;;;;;;;;;;17.52;41.58;97918.69;5254890;27;34259;-89
2022/04/07 10:11:14;;;;;;;;;;;;;;;17.41;42.37;97916.84;5256808;27;34215;-89
2022/04/07 10:13:45;;;;;;;;;;;;;;;17.38;41.01;97907.41;5251002;27;34107;-88
2022/04/07 10:16:35;;;;;;;;;;;;;;;17.25;41.32;97902.19;5250918;27;33298;-89
2022/04/07 10:19:05;;;;;;;;;;;;;;;17.24;41.56;97915.38;5250503;27;34180;-89
2022/04/07 10:21:39;;;;;;;;;;;;;;;17.31;40.85;97908.78;5250588;27;33975;-89
2022/04/07 10:24:22;;;;;;;;;;;;;;;17.44;40.88;97909.59;5251134;27;34142;-91
2022/04/07 10:26:52;;;;;;;;;;;;;;;17.72;39.34;97904.22;5254092;27;33261;-88
2022/04/07 10:29:22;;;;;;;;;;;;;;;17.74;38.59;97900.53;5252234;27;35727;-90
2022/04/07 10:32:10;;;;;;;;;;;;;;;17.98;39.06;97889.25;5250567;27;33787;-89
2022/04/07 10:34:42;;;;;;;;;;;;;;;18.18;39.07;97893.06;5251203;27;34531;-92
2022/04/07 10:37:14;;;;;;;;;;;;;;;18.45;37.73;97891.00;5251428;27;33446;-89
2022/04/07 10:39:45;;;;;;;;;;;;;;;18.54;36.65;97887.72;5251834;27;34342;-90
2022/04/07 10:42:16;;;;;;;;;;;;;;;18.27;37.61;97895.84;5256377;27;34634;-90
2022/04/07 10:44:45;;;;;;;;;;;;;;;18.50;36.24;97883.63;5251396;27;34188;-90
2022/04/07 10:47:15;;;;;;;;;;;;;;;18.58;36.07;97877.81;5250204;27;31904;-89
2022/04/07 10:49:47;;;;;;;;;;;;;;;18.38;36.77;97873.22;5251213;27;33697;-89
2022/04/07 10:52:29;;;;;;;;;;;;;;;18.49;35.87;97868.84;5251200;27;34959;-89
2022/04/07 10:55:11;;;;;;;;;;;;;;;18.11;36.49;97856.75;5250973;27;34263;-90
2022/04/07 10:57:58;;;;;;;;;;;;;;;18.35;36.50;97861.16;5255579;27;34120;-90
2022/04/07 11:00:39;;;;;;;;;;;;;;;18.87;35.49;97865.16;5256119;27;34427;-90
2022/04/07 11:03:14;;;;;;;;;;;;;;;19.12;34.18;97871.97;5250530;27;33982;-89
2022/04/07 11:05:54;;;;;;;;;;;;;;;19.19;34.12;97860.03;5251189;27;34388;-90
2022/04/07 11:08:23;;;;;;;;;;;;;;;19.10;34.39;97858.09;5249604;27;31055;-89
2022/04/07 11:10:53;;;;;;;;;;;;;;;18.96;34.31;97855.72;5250769;27;33773;-88
2022/04/07 11:13:33;;;;;;;;;;;;;;;18.54;34.62;97858.00;5250604;27;33889;-89
2022/04/07 11:16:12;;;;;;;;;;;;;;;18.94;34.71;97857.59;5256575;27;33937;-88
2022/04/07 11:18:42;;;;;;;;;;;;;;;18.95;34.88;97854.88;5256163;27;34055;-89
2022/04/07 11:21:15;;;;;;;;;;;;;;;19.14;33.53;97859.56;5251385;27;33843;-89
2022/04/07 11:23:45;;;;;;;;;;;;;;;18.90;34.46;97853.56;5251999;27;34631;-89
2022/04/07 11:26:21;;;;;;;;;;;;;;;18.98;34.55;97853.81;5252381;27;34719;-90
2022/04/07 11:28:58;;;;;;;;;;;;;;;19.42;33.44;97852.13;5252437;27;33969;-90
2022/04/07 11:31:51;;;;;;;;;;;;;;;18.47;34.94;97860.22;5254846;27;34474;-90
2022/04/07 11:34:42;;;;;;;;;;;;;;;18.53;35.00;97858.94;5241092;27;33826;-89
2022/04/07 11:37:14;;;;;;;;;;;;;;;19.03;34.14;97854.28;5252065;27;34027;-90
2022/04/07 11:39:45;;;;;;;;;;;;;;;19.46;33.27;97847.47;5251545;27;34234;-89
2022/04/07 11:42:15;;;;;;;;;;;;;;;19.06;33.79;97848.78;5250879;27;34802;-90
2022/04/07 11:44:48;;;;;;;;;;;;;;;18.75;33.83;97843.25;5250637;27;34788;-89
2022/04/07 11:47:24;;;;;;;;;;;;;;;19.26;33.30;97846.44;5250629;27;33713;-89
2022/04/07 11:49:53;;;;;;;;;;;;;;;18.73;33.59;97842.50;5252666;27;32991;-90
2022/04/07 11:52:29;;;;;;;;;;;;;;;18.50;34.31;97843.41;5256578;27;34730;-89
2022/04/07 11:54:58;;;;;;;;;;;;;;;18.68;33.86;97834.16;5250440;27;33345;-89
2022/04/07 11:57:28;;;;;;;;;;;;;;;18.87;34.67;97844.13;5250850;27;34216;-88
2022/04/07 11:59:57;;;;;;;;;;;;;;;18.90;34.83;97829.91;5250540;27;32691;-89
2022/04/07 12:02:27;;;;;;;;;;;;;;;18.91;33.63;97831.59;5250446;27;34824;-90
2022/04/07 12:04:57;;;;;;;;;;;;;;;19.48;33.28;97837.69;5256973;27;33855;-89
2022/04/07 12:07:30;;;;;;;;;;;;;;;18.72;35.26;97830.31;5251210;27;34296;-90
2022/04/07 12:10:05;;;;;;;;;;;;;;;18.80;34.23;97829.78;5253477;27;34130;-91
2022/04/07 12:12:40;;;;;;;;;;;;;;;18.99;33.88;97821.31;5252745;27;34290;-89
2022/04/07 12:15:13;;;;;;;;;;;;;;;19.01;33.79;97810.69;5256303;27;35080;-88
2022/04/07 12:18:01;;;;;;;;;;;;;;;19.88;32.35;97801.13;5254541;27;34833;-90
2022/04/07 12:20:29;;;;;;;;;;;;;;;19.43;34.04;97814.37;5256317;27;33019;-93
2022/04/07 12:23:07;;;;;;;;;;;;;;;19.52;34.16;97807.53;5256673;27;33998;-89
2022/04/07 12:25:37;;;;;;;;;;;;;;;20.09;35.11;97808.25;5251580;27;34195;-91
2022/04/07 12:28:13;;;;;;;;;;;;;;;20.03;35.17;97809.59;5250921;27;35052;-89
2022/04/07 12:30:46;;;;;;;;;;;;;;;18.62;37.44;97810.12;5250112;27;34045;-88
2022/04/07 12:33:29;;;;;;;;;;;;;;;19.33;36.82;97802.88;5248735;27;33727;-88
2022/04/07 12:35:58;;;;;;;;;;;;;;;19.58;36.26;97802.62;5248808;27;34131;-89
2022/04/07 12:38:31;;;;;;;;;;;;;;;20.07;35.79;97795.19;5254174;27;33791;-90
2022/04/07 12:41:09;;;;;;;;;;;;;;;20.41;34.43;97792.38;5248500;27;32999;-88
2022/04/07 12:43:49;;;;;;;;;;;;;;;20.45;34.33;97793.81;5249340;27;34905;-88
2022/04/07 12:46:18;;;;;;;;;;;;;;;20.85;34.58;97793.09;5248784;27;34292;-88
2022/04/07 12:49:04;;;;;;;;;;;;;;;19.69;35.05;97803.56;5249232;27;34556;-89
2022/04/07 12:51:38;;;;;;;;;;;;;;;19.80;35.65;97795.66;5250328;27;33229;-88
2022/04/07 12:54:14;;;;;;;;;;;;;;;19.15;36.33;97792.88;5256159;27;34058;-89
2022/04/07 12:56:44;;;;;;;;;;;;;;;19.78;35.37;97790.50;5254179;27;34395;-88
2022/04/07 12:59:14;;;;;;;;;;;;;;;20.63;34.50;97783.53;5251249;27;33172;-89
2022/04/07 13:01:48;;;;;;;;;;;;;;;20.86;33.65;97776.31;5255762;27;32081;-89
2022/04/07 13:04:17;;;;;;;;;;;;;;;20.76;34.49;97781.53;5256213;27;34162;-88
2022/04/07 13:06:46;;;;;;;;;;;;;;;19.56;34.90;97780.03;5254856;27;33776;-90
2022/04/07 13:09:18;;;;;;;;;;;;;;;19.39;35.31;97776.13;5255915;27;34325;-89
2022/04/07 13:11:47;;;;;;;;;;;;;;;20.06;35.04;97772.47;5250508;27;32891;-88